Time;durP1;ratioP1;P1;durP2;ratioP2;P2;SDS_P1;SDS_P2;PMS_P1;PMS_P2;Temp;Humidity;BMP_temperature;BMP_pressure;BME280_temperature;BME280_humidity;BME280_pressure;Samples;Min_cycle;Max_cycle;Signal;HPM_P1;HPM_P2
2021/05/08 00:02:18;;;;;;;4.78;3.50;;;;;;;10.58;55.46;100078.00;4441913;32;34492;-86
2021/05/08 00:04:46;;;;;;;4.50;2.97;;;;;;;10.64;56.15;100078.94;4441783;32;34600;-86
2021/05/08 00:07:13;;;;;;;5.15;4.62;;;;;;;10.54;55.52;100082.34;4428863;32;34632;-86
2021/05/08 00:09:40;;;;;;;5.32;3.78;;;;;;;10.58;55.64;100081.47;4441908;32;33812;-86
2021/05/08 00:12:09;;;;;;;5.30;3.35;;;;;;;10.65;55.58;100092.81;4428888;32;34121;-86
2021/05/08 00:14:37;;;;;;;5.12;3.75;;;;;;;10.68;55.53;100092.78;4429743;32;34037;-86
2021/05/08 00:17:06;;;;;;;6.60;3.62;;;;;;;10.65;55.46;100100.59;4445727;32;33445;-86
2021/05/08 00:19:34;;;;;;;4.00;3.22;;;;;;;10.59;55.52;100098.84;4430068;32;33275;-86
2021/05/08 00:22:02;;;;;;;8.40;3.55;;;;;;;10.48;55.32;100102.25;4416630;32;34150;-86
2021/05/08 00:24:29;;;;;;;4.32;3.65;;;;;;;10.57;55.05;100099.69;4429121;32;35247;-85
2021/05/08 00:26:56;;;;;;;4.40;3.55;;;;;;;10.55;55.29;100097.09;4429215;32;33335;-86
2021/05/08 00:29:23;;;;;;;4.55;3.65;;;;;;;10.27;55.67;100104.75;4429249;32;35258;-86
2021/05/08 00:31:56;;;;;;;4.43;3.53;;;;;;;10.45;55.73;100113.50;4456140;32;35727;-86
2021/05/08 00:34:23;;;;;;;4.65;3.85;;;;;;;10.37;55.34;100111.72;4429049;32;33447;-85
2021/05/08 00:36:51;;;;;;;4.32;3.78;;;;;;;10.41;55.37;100116.94;4429390;32;33589;-86
2021/05/08 00:39:18;;;;;;;5.30;3.65;;;;;;;10.19;55.65;100118.56;4429106;32;34119;-86
2021/05/08 00:41:46;;;;;;;5.60;3.80;;;;;;;10.29;55.95;100116.91;4416683;32;33839;-86
2021/05/08 00:44:15;;;;;;;3.95;3.55;;;;;;;10.03;55.93;100127.06;4429041;32;33980;-86
2021/05/08 00:46:43;;;;;;;4.75;3.83;;;;;;;10.10;55.79;100139.25;4436874;32;34342;-86
2021/05/08 00:49:11;;;;;;;4.47;3.87;;;;;;;10.05;55.82;100140.97;4429585;32;33793;-86
2021/05/08 00:51:39;;;;;;;4.53;3.60;;;;;;;10.17;55.99;100140.22;4442081;32;35073;-86
2021/05/08 00:54:06;;;;;;;5.82;3.72;;;;;;;10.09;55.91;100141.84;4429099;32;33997;-86
2021/05/08 00:56:34;;;;;;;4.20;3.55;;;;;;;10.03;55.70;100142.66;4428423;32;33259;-86
2021/05/08 00:59:01;;;;;;;5.18;3.92;;;;;;;10.07;55.65;100141.84;4429160;32;34076;-86
2021/05/08 01:01:28;;;;;;;3.72;3.28;;;;;;;9.82;55.85;100152.00;4441911;32;34582;-86
2021/05/08 01:03:56;;;;;;;5.75;3.58;;;;;;;9.81;55.74;100153.75;4429108;32;33910;-86
2021/05/08 01:06:23;;;;;;;4.53;3.58;;;;;;;9.74;56.08;100157.16;4455979;32;33250;-86
2021/05/08 01:08:51;;;;;;;5.45;3.70;;;;;;;9.62;56.29;100149.25;4441549;32;35391;-87
2021/05/08 01:11:19;;;;;;;5.57;3.17;;;;;;;9.46;56.77;100158.59;4429511;32;34276;-86
2021/05/08 01:13:47;;;;;;;5.05;3.47;;;;;;;9.71;56.13;100166.63;4428933;32;33412;-86
2021/05/08 01:16:14;;;;;;;3.80;3.40;;;;;;;9.68;56.13;100170.06;4441397;32;33369;-86
2021/05/08 01:18:42;;;;;;;4.37;3.45;;;;;;;9.32;56.81;100174.91;4441820;32;33852;-86
2021/05/08 01:21:14;;;;;;;4.15;3.60;;;;;;;9.26;56.93;100180.03;4428700;32;35312;-86
2021/05/08 01:23:42;;;;;;;4.95;3.85;;;;;;;9.33;57.05;100177.53;4441747;32;33959;-86
2021/05/08 01:26:10;;;;;;;4.50;3.50;;;;;;;9.20;56.80;100174.78;4441871;32;33701;-86
2021/05/08 01:28:39;;;;;;;5.05;3.58;;;;;;;9.23;56.58;100175.69;4429212;32;33998;-86
2021/05/08 01:31:11;;;;;;;4.45;3.33;;;;;;;9.32;56.36;100177.50;4416399;32;34074;-86
2021/05/08 01:33:43;;;;;;;3.55;3.05;;;;;;;9.21;56.74;100179.09;4429327;32;33995;-86
2021/05/08 01:36:11;;;;;;;3.87;3.47;;;;;;;9.31;57.10;100181.84;4429108;32;33133;-86
2021/05/08 01:38:38;;;;;;;5.20;3.60;;;;;;;9.14;57.06;100174.69;4441812;32;33773;-86
2021/05/08 01:41:08;;;;;;;5.90;3.78;;;;;;;9.00;57.32;100177.16;4416659;32;34655;-86
2021/05/08 01:43:36;;;;;;;5.60;3.42;;;;;;;9.04;57.33;100181.50;4428943;32;34521;-86
2021/05/08 01:46:04;;;;;;;5.18;3.40;;;;;;;9.05;57.25;100184.97;4441690;32;33415;-85
2021/05/08 01:48:33;;;;;;;5.20;3.00;;;;;;;9.06;57.14;100191.91;4429238;32;34548;-86
2021/05/08 01:51:01;;;;;;;5.00;3.60;;;;;;;9.18;56.89;100189.44;4444785;32;35439;-86
2021/05/08 01:53:29;;;;;;;4.68;3.40;;;;;;;9.04;57.17;100202.25;4441215;32;33657;-85
2021/05/08 01:55:56;;;;;;;4.35;3.40;;;;;;;9.21;56.55;100195.56;4416113;32;32679;-85
2021/05/08 01:58:24;;;;;;;4.22;3.45;;;;;;;9.01;57.28;100193.59;4428745;32;34681;-86
2021/05/08 02:00:53;;;;;;;4.70;3.80;;;;;;;9.09;56.79;100187.62;4429178;32;34378;-86
2021/05/08 02:03:21;;;;;;;6.35;3.37;;;;;;;9.19;56.49;100194.69;4428983;32;33999;-86
2021/05/08 02:05:50;;;;;;;4.12;3.15;;;;;;;9.29;56.34;100198.25;4441459;32;33355;-85
2021/05/08 02:08:18;;;;;;;3.90;2.87;;;;;;;9.33;56.44;100198.28;4428473;32;33774;-86
2021/05/08 02:10:46;;;;;;;5.20;3.20;;;;;;;9.37;55.80;100201.78;4429190;32;33765;-85
2021/05/08 02:13:14;;;;;;;6.55;3.60;;;;;;;9.29;56.10;100206.03;4441295;32;34861;-85
2021/05/08 02:15:42;;;;;;;4.55;3.37;;;;;;;9.36;55.59;100207.84;4441042;32;33252;-85
2021/05/08 02:18:10;;;;;;;3.35;2.72;;;;;;;9.22;55.91;100206.81;4428877;32;34010;-87
2021/05/08 02:20:42;;;;;;;6.60;3.25;;;;;;;9.25;56.15;100212.03;4441433;32;34562;-87
2021/05/08 02:23:11;;;;;;;4.32;3.33;;;;;;;9.06;56.00;100218.72;4416224;32;33713;-87
2021/05/08 02:25:40;;;;;;;3.65;3.00;;;;;;;9.15;56.92;100217.97;4428424;32;33894;-87
2021/05/08 02:28:08;;;;;;;4.37;3.58;;;;;;;9.18;56.22;100198.09;4428232;32;33865;-86
2021/05/08 02:30:39;;;;;;;4.82;3.62;;;;;;;9.17;55.95;100201.56;4428310;32;35306;-87
2021/05/08 02:33:06;;;;;;;4.55;3.30;;;;;;;8.89;56.62;100203.81;4428248;32;34338;-86
2021/05/08 02:35:37;;;;;;;4.65;3.58;;;;;;;8.76;56.91;100203.66;4441424;32;33725;-87
2021/05/08 02:38:05;;;;;;;4.22;3.53;;;;;;;8.72;57.32;100198.41;4441121;32;34083;-86
2021/05/08 02:40:38;;;;;;;4.62;2.95;;;;;;;8.80;57.01;100200.22;4440896;32;34288;-87
2021/05/08 02:43:05;;;;;;;;;;;;;;;9.05;57.06;100198.84;4428563;32;35328;-86
2021/05/08 02:45:33;;;;;;;4.35;3.47;;;;;;;8.94;56.79;100196.97;4428929;32;34539;-87
2021/05/08 02:48:01;;;;;;;4.35;3.50;;;;;;;8.73;57.39;100202.72;4440913;32;33861;-87
2021/05/08 02:50:30;;;;;;;3.67;3.08;;;;;;;8.71;57.44;100200.13;4441020;32;34815;-87
2021/05/08 02:52:58;;;;;;;6.55;4.32;;;;;;;8.56;57.73;100207.66;4428389;32;34341;-87
2021/05/08 02:55:25;;;;;;;3.62;3.20;;;;;;;8.31;58.34;100213.34;4441036;32;33395;-87
2021/05/08 02:57:53;;;;;;;5.53;3.67;;;;;;;8.34;58.83;100210.81;4428025;32;34313;-86
2021/05/08 03:00:21;;;;;;;4.60;4.10;;;;;;;8.36;58.92;100211.72;4415232;32;35179;-86
2021/05/08 03:02:48;;;;;;;5.00;3.75;;;;;;;8.47;58.61;100219.63;4428242;32;34121;-87
2021/05/08 03:05:16;;;;;;;6.03;3.95;;;;;;;7.91;59.66;100226.47;4428020;32;33299;-86
2021/05/08 03:07:44;;;;;;;5.35;3.92;;;;;;;8.27;59.09;100227.13;4428417;32;33886;-87
2021/05/08 03:10:12;;;;;;;4.55;3.60;;;;;;;8.25;59.13;100225.31;4428130;32;34553;-87
2021/05/08 03:12:41;;;;;;;6.93;3.83;;;;;;;8.37;58.71;100234.16;4428086;32;33934;-87
2021/05/08 03:15:10;;;;;;;7.50;3.72;;;;;;;8.23;58.83;100233.06;4440247;32;34852;-87
2021/05/08 03:17:37;;;;;;;6.55;3.90;;;;;;;8.08;59.14;100227.66;4427594;32;33748;-87
2021/05/08 03:20:05;;;;;;;4.60;3.50;;;;;;;8.05;59.36;100225.88;4427973;32;34523;-87
2021/05/08 03:22:33;;;;;;;4.60;3.65;;;;;;;8.07;59.48;100225.88;4430476;32;33199;-87
2021/05/08 03:25:01;;;;;;;7.45;4.10;;;;;;;8.14;59.29;100230.31;4443789;32;33140;-86
2021/05/08 03:27:28;;;;;;;6.10;3.85;;;;;;;8.16;59.75;100244.16;4429198;32;34580;-87
2021/05/08 03:29:56;;;;;;;4.90;3.75;;;;;;;8.12;59.12;100242.38;4442316;32;35173;-87
2021/05/08 03:32:23;;;;;;;4.53;3.55;;;;;;;8.10;59.22;100244.97;4416321;32;34735;-85
2021/05/08 03:34:51;;;;;;;5.00;3.85;;;;;;;8.31;58.66;100248.75;4416482;32;32923;-85
2021/05/08 03:37:19;;;;;;;4.22;3.30;;;;;;;8.43;58.35;100259.31;4429142;32;33794;-85
2021/05/08 03:39:49;;;;;;;5.47;3.85;;;;;;;8.46;58.59;100255.03;4429736;32;34461;-85
2021/05/08 03:42:16;;;;;;;6.35;4.10;;;;;;;8.57;58.17;100258.69;4428792;32;33475;-86
2021/05/08 03:44:44;;;;;;;6.20;3.97;;;;;;;8.61;58.07;100267.37;4456310;32;33414;-85
2021/05/08 03:47:11;;;;;;;5.93;3.62;;;;;;;8.83;57.50;100256.47;4416994;32;32762;-86
2021/05/08 03:49:39;;;;;;;6.90;4.20;;;;;;;8.91;56.89;100256.56;4429581;32;34632;-86
2021/05/08 03:52:06;;;;;;;5.60;3.90;;;;;;;8.95;56.77;100264.41;4442072;32;34036;-85
2021/05/08 03:54:33;;;;;;;5.70;4.07;;;;;;;8.90;56.56;100265.19;4416893;32;33646;-86
2021/05/08 03:57:01;;;;;;;5.80;4.15;;;;;;;8.52;58.11;100269.81;4442701;32;34096;-85
2021/05/08 03:59:28;;;;;;;4.85;3.75;;;;;;;8.69;57.62;100274.44;4429455;32;34502;-86
2021/05/08 04:01:55;;;;;;;5.37;4.20;;;;;;;8.89;56.99;100281.63;4429463;32;34039;-86
2021/05/08 04:04:23;;;;;;;4.90;3.90;;;;;;;9.06;56.62;100281.00;4429321;32;32918;-86
2021/05/08 04:06:50;;;;;;;5.10;3.87;;;;;;;8.82;57.17;100280.66;4442204;32;33973;-86
2021/05/08 04:09:17;;;;;;;5.43;4.00;;;;;;;8.95;56.53;100292.06;4442160;32;34504;-85
2021/05/08 04:11:45;;;;;;;5.05;4.00;;;;;;;9.08;56.49;100296.59;4416737;32;32591;-87
2021/05/08 04:14:12;;;;;;;5.00;3.45;;;;;;;9.25;55.79;100295.06;4442294;32;34615;-86
2021/05/08 04:16:39;;;;;;;6.20;3.67;;;;;;;9.43;55.62;100297.91;4441928;32;34693;-86
2021/05/08 04:19:07;;;;;;;5.82;4.82;;;;;;;9.55;55.56;100303.25;4429582;32;34925;-85
2021/05/08 04:21:34;;;;;;;5.75;4.22;;;;;;;9.66;55.04;100305.97;4429252;32;33991;-86
2021/05/08 04:24:02;;;;;;;5.25;3.85;;;;;;;9.81;54.37;100307.03;4442035;32;34122;-86
2021/05/08 04:26:30;;;;;;;5.57;4.37;;;;;;;9.90;53.93;100312.31;4442075;32;33970;-85
2021/05/08 04:29:02;;;;;;;;;;;;;;;10.04;54.27;100318.53;4431086;32;34380;-86
2021/05/08 04:31:29;;;;;;;5.37;3.80;;;;;;;10.11;53.50;100317.75;4441959;32;34835;-86
2021/05/08 04:33:57;;;;;;;5.30;3.70;;;;;;;9.96;53.32;100314.97;4442144;32;33971;-85
2021/05/08 04:36:24;;;;;;;5.85;3.85;;;;;;;9.99;53.59;100322.78;4429571;32;33764;-85
2021/05/08 04:38:53;;;;;;;4.82;3.80;;;;;;;10.05;53.94;100314.19;4429872;32;35786;-86
2021/05/08 04:41:20;;;;;;;5.47;3.78;;;;;;;10.10;54.36;100326.38;4455794;32;34387;-86
2021/05/08 04:43:48;;;;;;;5.30;3.67;;;;;;;10.10;53.03;100325.53;4429629;32;34083;-86
2021/05/08 04:46:17;;;;;;;6.45;4.30;;;;;;;10.09;52.28;100332.44;4442383;32;33732;-86
2021/05/08 04:48:45;;;;;;;5.10;3.92;;;;;;;10.00;53.72;100332.34;4429484;32;34425;-86
2021/05/08 04:51:12;;;;;;;5.18;4.22;;;;;;;10.03;53.13;100339.31;4428944;32;34599;-86
2021/05/08 04:53:39;;;;;;;5.82;4.35;;;;;;;10.01;53.50;100344.47;4429242;32;34350;-86
2021/05/08 04:56:06;;;;;;;4.87;3.83;;;;;;;9.94;53.59;100334.88;4430825;32;33514;-87
2021/05/08 04:58:33;;;;;;;4.70;3.70;;;;;;;10.19;53.19;100342.13;4443584;32;34873;-86
2021/05/08 05:01:01;;;;;;;5.57;3.92;;;;;;;9.99;53.73;100351.38;4441768;32;33956;-86
2021/05/08 05:03:28;;;;;;;5.37;4.25;;;;;;;9.91;53.93;100353.00;4416315;32;32536;-86
2021/05/08 05:05:55;;;;;;;6.75;4.30;;;;;;;10.13;53.51;100348.94;4428925;32;34630;-86
2021/05/08 05:08:23;;;;;;;6.45;4.45;;;;;;;10.11;53.76;100348.94;4429097;32;35442;-85
2021/05/08 05:10:51;;;;;;;5.53;4.20;;;;;;;10.32;53.54;100357.84;4429140;32;35345;-86
2021/05/08 05:13:21;;;;;;;5.72;4.25;;;;;;;10.19;54.01;100357.72;4429266;32;32742;-85
2021/05/08 05:15:50;;;;;;;8.32;4.45;;;;;;;10.34;53.41;100354.34;4441623;32;33873;-85
2021/05/08 05:18:18;;;;;;;6.72;4.20;;;;;;;10.07;54.61;100352.34;4441574;32;34560;-86
2021/05/08 05:20:45;;;;;;;5.87;4.28;;;;;;;10.38;54.11;100353.56;4428844;32;34121;-86
2021/05/08 05:23:13;;;;;;;5.43;4.28;;;;;;;10.37;53.95;100364.78;4429071;32;33262;-86
2021/05/08 05:25:40;;;;;;;4.68;3.80;;;;;;;10.39;53.91;100364.84;4416295;32;33335;-86
2021/05/08 05:28:21;;;;;;;5.05;4.45;;;;;;;10.48;53.94;100375.31;4441454;32;35851;-87
2021/05/08 05:30:49;;;;;;;5.53;4.15;;;;;;;10.51;52.08;100375.31;4441423;32;33991;-86
2021/05/08 05:33:17;;;;;;;5.30;4.07;;;;;;;10.48;53.18;100383.13;4442106;32;33392;-85
2021/05/08 05:35:51;;;;;;;5.43;4.03;;;;;;;10.68;53.39;100384.16;4429182;32;33433;-85
2021/05/08 05:38:18;;;;;;;5.70;4.35;;;;;;;10.49;53.16;100393.53;4441360;32;34435;-85
2021/05/08 05:40:46;;;;;;;6.40;4.87;;;;;;;10.79;53.42;100395.53;4428746;32;33586;-85
2021/05/08 05:43:13;;;;;;;5.70;4.62;;;;;;;10.75;54.47;100398.94;4427998;32;33498;-85
2021/05/08 05:45:40;;;;;;;5.53;4.10;;;;;;;10.96;54.21;100400.88;4428710;32;33934;-85
2021/05/08 05:48:08;;;;;;;5.85;4.47;;;;;;;11.03;51.76;100400.91;4428634;32;34872;-85
2021/05/08 05:50:37;;;;;;;6.18;4.32;;;;;;;11.05;51.08;100407.03;4429001;32;32983;-85
2021/05/08 05:53:05;;;;;;;5.22;4.60;;;;;;;10.92;51.51;100407.78;4428833;32;33872;-85
2021/05/08 05:55:33;;;;;;;5.68;4.32;;;;;;;11.08;53.48;100407.03;4428695;32;34225;-84
2021/05/08 05:58:00;;;;;;;5.93;4.57;;;;;;;11.23;50.97;100401.94;4428939;32;35267;-85
2021/05/08 06:00:28;;;;;;;8.52;5.07;;;;;;;11.36;50.88;100415.91;4428558;32;34324;-85
2021/05/08 06:02:55;;;;;;;6.10;4.85;;;;;;;11.58;50.67;100416.03;4441570;32;33037;-85
2021/05/08 06:05:23;;;;;;;5.62;4.57;;;;;;;11.85;49.63;100404.03;4428557;32;34399;-86
2021/05/08 06:07:50;;;;;;;6.72;5.72;;;;;;;11.84;50.03;100410.13;4428474;32;34423;-85
2021/05/08 06:10:19;;;;;;;8.05;5.07;;;;;;;11.65;49.37;100423.91;4428857;32;35337;-84
2021/05/08 06:12:46;;;;;;;7.20;5.18;;;;;;;11.68;50.36;100416.13;4428691;32;34703;-86
2021/05/08 06:15:13;;;;;;;6.55;5.05;;;;;;;11.93;49.24;100407.56;4428391;32;33822;-85
2021/05/08 06:17:41;;;;;;;6.22;4.28;;;;;;;11.80;48.82;100429.22;4441385;32;34543;-86
2021/05/08 06:20:08;;;;;;;5.97;4.80;;;;;;;12.03;48.50;100422.34;4428416;32;34451;-84
2021/05/08 06:22:36;;;;;;;7.32;4.95;;;;;;;12.18;48.46;100419.81;4441228;32;34687;-85
2021/05/08 06:25:03;;;;;;;5.80;4.35;;;;;;;12.31;48.06;100421.59;4428145;32;33669;-87
2021/05/08 06:27:31;;;;;;;6.15;4.15;;;;;;;12.54;46.06;100417.28;4440680;32;35671;-86
2021/05/08 06:29:58;;;;;;;7.15;4.78;;;;;;;12.52;47.84;100416.41;4430179;32;34103;-85
2021/05/08 06:32:26;;;;;;;6.53;5.03;;;;;;;12.78;46.84;100422.53;4428463;32;33503;-85
2021/05/08 06:34:54;;;;;;;6.43;4.75;;;;;;;12.88;45.53;100426.03;4428078;32;35142;-86
2021/05/08 06:37:21;;;;;;;6.35;4.35;;;;;;;12.76;46.35;100421.69;4440480;32;34690;-85
2021/05/08 06:39:49;;;;;;;7.12;5.12;;;;;;;12.70;46.18;100423.37;4440637;32;34741;-85
2021/05/08 06:42:16;;;;;;;6.18;4.47;;;;;;;12.94;47.87;100426.00;4440478;32;34084;-83
2021/05/08 06:44:44;;;;;;;5.87;4.55;;;;;;;13.25;45.59;100422.56;4428046;32;34211;-84
2021/05/08 06:47:15;;;;;;;8.52;4.68;;;;;;;13.33;46.16;100428.66;4454902;32;34383;-84
2021/05/08 06:49:44;;;;;;;5.68;4.75;;;;;;;13.75;44.11;100417.22;4441439;32;34523;-86
2021/05/08 06:52:12;;;;;;;5.57;4.72;;;;;;;13.75;41.68;100408.50;4427864;32;32809;-85
2021/05/08 06:54:39;;;;;;;5.62;4.57;;;;;;;13.66;43.25;100408.53;4454982;32;35584;-86
2021/05/08 06:57:06;;;;;;;4.72;4.15;;;;;;;13.83;42.20;100414.56;4430325;32;34302;-86
2021/05/08 06:59:33;;;;;;;5.53;3.60;;;;;;;13.97;42.07;100412.78;4430117;32;34008;-86
2021/05/08 07:02:01;;;;;;;6.10;4.60;;;;;;;13.98;42.70;100418.00;4430461;32;33313;-85
2021/05/08 07:04:29;;;;;;;5.47;3.90;;;;;;;14.01;42.78;100402.28;4442639;32;33829;-85
2021/05/08 07:06:56;;;;;;;5.43;4.05;;;;;;;14.38;41.37;100413.44;4430119;32;34420;-87
2021/05/08 07:09:23;;;;;;;4.55;3.75;;;;;;;14.68;41.73;100407.16;4430417;32;33527;-87
2021/05/08 07:11:52;;;;;;;5.28;4.35;;;;;;;14.43;41.51;100426.53;4443343;32;33344;-87
2021/05/08 07:14:19;;;;;;;6.43;4.60;;;;;;;14.58;41.07;100415.94;4430613;32;33545;-86
2021/05/08 07:16:50;;;;;;;6.28;4.05;;;;;;;14.53;42.16;100418.59;4443266;32;35218;-85
2021/05/08 07:19:18;;;;;;;6.35;5.28;;;;;;;14.58;40.03;100423.81;4444218;32;34438;-83
2021/05/08 07:21:46;;;;;;;5.57;4.00;;;;;;;14.34;40.04;100416.97;4442696;32;33590;-85
2021/05/08 07:24:14;;;;;;;6.12;4.15;;;;;;;14.36;40.76;100417.81;4431989;32;34533;-87
2021/05/08 07:26:41;;;;;;;5.55;4.37;;;;;;;14.65;41.25;100428.13;4442614;32;34405;-86
2021/05/08 07:29:09;;;;;;;6.12;4.55;;;;;;;14.74;40.37;100426.31;4442469;32;34291;-87
2021/05/08 07:31:36;;;;;;;5.57;4.30;;;;;;;15.26;40.19;100418.88;4442670;32;34376;-85
2021/05/08 07:34:04;;;;;;;4.50;3.92;;;;;;;15.11;38.03;100419.03;4417417;32;34777;-85
2021/05/08 07:36:31;;;;;;;6.68;3.72;;;;;;;15.33;40.26;100431.03;4429954;32;35069;-85
2021/05/08 07:38:58;;;;;;;4.87;3.67;;;;;;;15.48;38.18;100430.06;4442524;32;34698;-84
2021/05/08 07:41:26;;;;;;;4.65;4.15;;;;;;;15.28;40.16;100432.88;4416795;32;32788;-84
2021/05/08 07:43:53;;;;;;;6.90;4.18;;;;;;;15.23;39.06;100433.78;4429355;32;35103;-84
2021/05/08 07:46:20;;;;;;;6.32;4.65;;;;;;;15.24;39.55;100433.75;4416371;32;33762;-86
2021/05/08 07:48:47;;;;;;;6.53;4.05;;;;;;;15.49;39.24;100437.06;4441975;32;34574;-86
2021/05/08 07:51:15;;;;;;;5.55;4.37;;;;;;;15.72;38.47;100442.06;4430298;32;33393;-85
2021/05/08 07:53:42;;;;;;;5.22;4.07;;;;;;;15.49;38.90;100435.31;4404737;32;34298;-86
2021/05/08 07:56:09;;;;;;;4.53;3.78;;;;;;;15.48;37.98;100443.16;4416705;32;34258;-86
2021/05/08 07:58:37;;;;;;;4.90;3.58;;;;;;;15.16;37.17;100446.06;4442294;32;34289;-86
2021/05/08 08:01:07;;;;;;;4.22;3.37;;;;;;;14.81;37.58;100450.69;4456287;32;33617;-87
2021/05/08 08:03:38;;;;;;;4.12;2.83;;;;;;;14.83;38.25;100456.81;4431391;32;33821;-86
2021/05/08 08:06:10;;;;;;;5.12;3.75;;;;;;;15.13;37.08;100447.84;4456472;32;34748;-88
2021/05/08 08:08:39;;;;;;;5.97;3.90;;;;;;;15.03;37.12;100452.28;4455287;32;34799;-85
2021/05/08 08:11:07;;;;;;;5.40;3.78;;;;;;;15.28;37.98;100451.22;4416395;32;33308;-85
2021/05/08 08:13:44;;;;;;;5.18;3.78;;;;;;;15.29;38.43;100455.56;4417618;32;33677;-86
2021/05/08 08:16:18;;;;;;;6.25;3.75;;;;;;;14.99;38.66;100458.44;4455353;32;35955;-85
2021/05/08 08:18:46;;;;;;;4.35;3.60;;;;;;;15.37;38.05;100463.34;4455796;32;35116;-86
2021/05/08 08:21:13;;;;;;;3.83;2.92;;;;;;;15.21;37.36;100467.00;4429248;32;33307;-86
2021/05/08 08:23:40;;;;;;;3.15;2.85;;;;;;;15.18;36.29;100473.12;4433320;32;33977;-81
2021/05/08 08:26:09;;;;;;;5.00;3.17;;;;;;;15.34;34.91;100468.63;4443431;32;35887;-84
2021/05/08 08:28:39;;;;;;;3.33;2.62;;;;;;;15.55;36.21;100471.06;4431139;32;33919;-81
2021/05/08 08:31:08;;;;;;;;;;;;;;;15.65;35.28;100472.72;4433585;32;33046;-86
2021/05/08 08:33:36;;;;;;;3.80;3.10;;;;;;;15.74;34.95;100466.50;4457672;32;34086;-85
2021/05/08 08:36:04;;;;;;;3.33;2.42;;;;;;;15.51;37.06;100467.63;4431588;32;34817;-89
2021/05/08 08:38:31;;;;;;;3.87;3.03;;;;;;;15.20;33.88;100476.59;4432254;32;34769;-86
2021/05/08 08:40:59;;;;;;;4.25;3.60;;;;;;;15.64;34.97;100478.00;4457617;32;33904;-84
2021/05/08 08:43:27;;;;;;;7.28;3.62;;;;;;;15.40;36.24;100482.53;4430899;32;33883;-85
2021/05/08 08:45:55;;;;;;;5.12;4.10;;;;;;;15.73;36.60;100477.91;4444010;32;34521;-84
2021/05/08 08:48:24;;;;;;;6.72;3.58;;;;;;;15.61;36.83;100478.00;4444540;32;33949;-86
2021/05/08 08:50:51;;;;;;;3.60;3.10;;;;;;;15.94;36.64;100472.41;4445076;32;33116;-86
2021/05/08 08:53:19;;;;;;;3.33;2.67;;;;;;;16.09;35.99;100469.62;4432745;32;33769;-84
2021/05/08 08:55:55;;;;;;;3.58;2.80;;;;;;;15.86;33.78;100479.47;4456091;32;35776;-85
2021/05/08 08:58:41;;;;;;;;;;;;;;;16.05;34.45;100474.03;4430404;32;34463;-85
2021/05/08 09:01:09;;;;;;;4.05;3.15;;;;;;;16.07;35.57;100468.75;4431285;32;33446;-86
2021/05/08 09:03:37;;;;;;;4.78;3.12;;;;;;;16.15;34.93;100472.16;4442595;32;34533;-86
2021/05/08 09:06:07;;;;;;;4.18;2.83;;;;;;;16.19;35.92;100463.34;4442408;32;34646;-86
2021/05/08 09:08:34;;;;;;;5.40;3.00;;;;;;;16.34;39.04;100472.78;4441761;32;35564;-85
2021/05/08 09:11:22;;;;;;;3.92;2.70;;;;;;;16.78;33.95;100475.72;4416155;32;32692;-85
2021/05/08 09:14:15;;;;;;;3.62;3.05;;;;;;;16.83;33.44;100485.25;4441836;32;33987;-86
2021/05/08 09:17:13;;;;;;;4.43;2.95;;;;;;;16.33;33.68;100477.16;4441514;32;34918;-84
2021/05/08 09:19:43;;;;;;;5.50;3.22;;;;;;;16.39;33.58;100477.09;4441542;32;34576;-86
2021/05/08 09:22:26;;;;;;;4.25;3.12;;;;;;;16.70;34.89;100477.59;4416350;32;32716;-87
2021/05/08 09:25:04;;;;;;;3.97;2.97;;;;;;;16.35;34.77;100482.41;4417125;32;33212;-86
2021/05/08 09:27:40;;;;;;;4.22;2.92;;;;;;;16.36;32.67;100487.63;4455585;32;34429;-87
2021/05/08 09:30:09;;;;;;;4.10;2.53;;;;;;;16.27;32.52;100474.63;4441773;32;35180;-86
2021/05/08 09:32:41;;;;;;;4.62;2.17;;;;;;;16.23;31.75;100465.94;4429199;32;33388;-86
2021/05/08 09:35:25;;;;;;;4.45;2.33;;;;;;;16.05;33.28;100475.78;4441526;32;34603;-85
2021/05/08 09:38:07;;;;;;;3.30;2.40;;;;;;;16.38;32.65;100469.25;4442381;32;34837;-85
2021/05/08 09:40:36;;;;;;;3.87;2.85;;;;;;;16.30;32.27;100477.22;4441092;32;33985;-85
2021/05/08 09:43:14;;;;;;;3.25;2.40;;;;;;;16.35;33.02;100477.16;4428298;32;33532;-85
2021/05/08 09:45:44;;;;;;;3.35;2.50;;;;;;;16.22;33.43;100479.06;4441030;32;35068;-86
2021/05/08 09:48:32;;;;;;;5.15;2.70;;;;;;;16.46;34.27;100472.62;4428258;32;34376;-87
2021/05/08 09:51:23;;;;;;;4.45;3.00;;;;;;;16.64;34.07;100467.19;4441251;32;35334;-86
2021/05/08 09:53:52;;;;;;;4.25;2.45;;;;;;;16.68;34.46;100469.75;4428251;32;34330;-87
2021/05/08 09:56:35;;;;;;;3.42;2.60;;;;;;;16.85;32.24;100475.59;4454785;32;34202;-86
2021/05/08 09:59:25;;;;;;;4.00;3.08;;;;;;;16.41;33.27;100470.06;4454926;32;35313;-86
2021/05/08 10:02:01;;;;;;;3.90;2.65;;;;;;;16.29;33.82;100470.22;4440791;32;34784;-86
2021/05/08 10:04:43;;;;;;;2.72;2.47;;;;;;;16.90;32.94;100460.63;4454708;32;33345;-86
2021/05/08 10:07:22;;;;;;;2.15;1.83;;;;;;;16.69;33.13;100463.56;4428398;32;34070;-85
2021/05/08 10:09:59;;;;;;;1.90;1.30;;;;;;;16.75;31.54;100458.25;4428327;32;34497;-84
2021/05/08 10:12:29;;;;;;;2.20;1.45;;;;;;;16.88;29.62;100462.41;4415780;32;33211;-85
2021/05/08 10:14:58;;;;;;;1.83;1.33;;;;;;;17.00;29.26;100456.09;4440765;32;33268;-82
2021/05/08 10:17:28;;;;;;;3.62;1.52;;;;;;;17.28;29.11;100451.28;4440541;32;33745;-84
2021/05/08 10:20:11;;;;;;;2.03;1.77;;;;;;;17.03;28.44;100455.19;4428594;32;34461;-84
2021/05/08 10:22:41;;;;;;;1.83;1.50;;;;;;;17.08;29.55;100459.47;4454350;32;34126;-84
2021/05/08 10:25:10;;;;;;;1.60;1.50;;;;;;;17.28;30.29;100438.13;4427821;32;32669;-84
2021/05/08 10:27:37;;;;;;;1.90;1.48;;;;;;;17.27;28.58;100449.53;4428274;32;33864;-84
2021/05/08 10:30:09;;;;;;;1.98;1.48;;;;;;;16.93;28.17;100450.06;4431670;32;34491;-84
2021/05/08 10:32:39;;;;;;;2.75;1.70;;;;;;;16.98;27.98;100451.75;4445815;32;34706;-85
2021/05/08 10:35:07;;;;;;;1.70;1.30;;;;;;;17.18;28.14;100434.78;4419696;32;34068;-85
2021/05/08 10:37:34;;;;;;;1.55;1.12;;;;;;;17.41;29.27;100439.63;4445976;32;34177;-85
2021/05/08 10:40:10;;;;;;;2.87;2.03;;;;;;;17.83;28.73;100433.59;4432845;32;34744;-84
2021/05/08 10:42:45;;;;;;;3.35;1.60;;;;;;;17.62;28.65;100428.75;4459738;32;35316;-84
2021/05/08 10:45:18;;;;;;;2.55;1.83;;;;;;;17.86;28.28;100423.03;4433014;32;33695;-85
2021/05/08 10:48:03;;;;;;;3.67;1.90;;;;;;;17.97;29.12;100417.56;4445886;32;33936;-86
2021/05/08 10:50:34;;;;;;;2.58;1.37;;;;;;;17.95;29.01;100427.22;4459592;32;35704;-85
2021/05/08 10:53:03;;;;;;;3.15;1.90;;;;;;;17.90;29.85;100427.31;4445918;32;34633;-85
2021/05/08 10:55:41;;;;;;;2.58;1.87;;;;;;;17.79;29.69;100425.78;4445686;32;33279;-85
2021/05/08 10:58:18;;;;;;;2.17;1.98;;;;;;;17.82;27.97;100424.00;4445657;32;34191;-84
2021/05/08 11:00:50;;;;;;;2.75;1.87;;;;;;;17.86;27.43;100415.12;4445718;32;34450;-85
2021/05/08 11:03:30;;;;;;;2.42;2.00;;;;;;;17.81;27.87;100416.09;4432774;32;35419;-86
2021/05/08 11:06:00;;;;;;;3.22;2.12;;;;;;;17.28;28.76;100430.25;4432785;32;34618;-86
2021/05/08 11:08:28;;;;;;;2.37;2.00;;;;;;;17.20;29.19;100429.50;4445594;32;34162;-85
2021/05/08 11:10:57;;;;;;;2.58;1.62;;;;;;;17.27;29.66;100428.50;4459940;32;34607;-85
2021/05/08 11:13:26;;;;;;;2.45;1.90;;;;;;;17.30;29.49;100428.44;4444728;32;34364;-84
2021/05/08 11:18:32;;;;;;;2.95;1.60;;;;;;;17.52;28.50;100414.03;4444736;32;33534;-85
2021/05/08 11:21:13;;;;;;;2.10;1.73;;;;;;;17.75;29.06;100417.13;4442328;32;34340;-84
2021/05/08 11:23:42;;;;;;;3.55;2.00;;;;;;;17.76;28.12;100410.94;4442384;32;33949;-85
2021/05/08 11:26:22;;;;;;;3.12;2.42;;;;;;;17.59;28.37;100420.91;4442214;32;33374;-84
2021/05/08 11:29:11;;;;;;;2.47;2.08;;;;;;;17.80;28.95;100412.63;4443189;32;33906;-84
2021/05/08 11:31:41;;;;;;;1.42;1.33;;;;;;;18.11;27.93;100411.09;4442159;32;34406;-84
2021/05/08 11:34:08;;;;;;;2.03;1.40;;;;;;;18.09;27.54;100410.25;4429062;32;34355;-84
2021/05/08 11:36:53;;;;;;;1.35;1.17;;;;;;;18.35;30.16;100408.84;4443119;32;33553;-86
2021/05/08 11:39:24;;;;;;;1.52;1.23;;;;;;;18.44;26.63;100414.78;4441964;32;33601;-86
2021/05/08 11:41:56;;;;;;;1.80;1.30;;;;;;;18.23;25.41;100416.09;4439222;32;34793;-84
2021/05/08 11:44:26;;;;;;;2.55;1.30;;;;;;;17.99;26.14;100416.63;4426869;32;34046;-84